createdAt,value
2017-07-03T00:02:04.722Z,13.99
2017-07-03T00:04:32.142Z,13.97
2017-07-03T00:06:59.565Z,13.94
2017-07-03T00:09:26.998Z,13.87
2017-07-03T00:11:54.413Z,13.85
2017-07-03T00:14:21.856Z,13.83
2017-07-03T00:16:49.305Z,13.79
2017-07-03T00:19:16.742Z,13.73
2017-07-03T00:21:44.165Z,13.71
2017-07-03T00:24:11.586Z,13.69
2017-07-03T00:26:38.994Z,13.65
2017-07-03T00:29:06.423Z,13.57
2017-07-03T00:31:33.838Z,13.55
2017-07-03T00:34:01.276Z,13.51
2017-07-03T00:36:28.685Z,13.49
2017-07-03T00:38:56.166Z,13.49
2017-07-03T00:41:23.594Z,13.50
2017-07-03T00:43:51.030Z,13.49
2017-07-03T00:46:18.459Z,13.49
2017-07-03T00:48:45.866Z,13.51
2017-07-03T00:51:13.294Z,13.47
2017-07-03T00:53:40.717Z,13.45
2017-07-03T00:56:08.126Z,13.42
2017-07-03T00:58:35.558Z,13.36
2017-07-03T01:01:02.980Z,13.37
2017-07-03T01:03:30.389Z,13.36
2017-07-03T01:05:57.809Z,13.33
2017-07-03T01:08:25.273Z,13.27
2017-07-03T01:10:52.747Z,13.16
2017-07-03T01:13:20.154Z,13.09
2017-07-03T01:15:47.580Z,13.04
2017-07-03T01:18:15.006Z,13.00
2017-07-03T01:20:42.419Z,12.94
2017-07-03T01:23:09.848Z,12.90
2017-07-03T01:25:37.515Z,12.90
2017-07-03T01:28:04.938Z,12.88
2017-07-03T01:30:32.367Z,12.83
2017-07-03T01:32:59.799Z,12.77
2017-07-03T01:35:27.226Z,12.76
2017-07-03T01:37:54.674Z,12.77
2017-07-03T01:40:22.097Z,12.77
2017-07-03T01:42:49.533Z,12.77
2017-07-03T01:45:16.966Z,12.73
2017-07-03T01:47:44.385Z,12.73
2017-07-03T01:50:11.831Z,12.68
2017-07-03T01:52:39.248Z,12.63
2017-07-03T01:55:06.677Z,12.54
2017-07-03T01:57:34.113Z,12.49
2017-07-03T02:00:01.522Z,12.46
2017-07-03T02:02:28.954Z,12.46
2017-07-03T02:04:56.375Z,12.45
2017-07-03T02:07:23.802Z,12.43
2017-07-03T02:09:51.230Z,12.36
2017-07-03T02:12:18.646Z,12.29
2017-07-03T02:14:46.089Z,12.39
2017-07-03T02:17:13.493Z,12.37
2017-07-03T02:19:40.929Z,12.33
2017-07-03T02:22:08.350Z,12.38
2017-07-03T02:24:35.765Z,12.36
2017-07-03T02:27:03.198Z,12.34
2017-07-03T02:29:30.609Z,12.29
2017-07-03T02:31:58.018Z,12.25
2017-07-03T02:34:25.446Z,12.20
2017-07-03T02:36:52.912Z,12.21
2017-07-03T02:39:20.358Z,12.19
2017-07-03T02:41:47.793Z,12.19
2017-07-03T02:44:15.207Z,12.21
2017-07-03T02:46:42.625Z,12.19
2017-07-03T02:49:10.049Z,12.17
2017-07-03T02:51:37.821Z,12.14
2017-07-03T02:54:05.237Z,12.12
2017-07-03T02:56:32.649Z,12.09
2017-07-03T02:59:00.075Z,12.06
2017-07-03T03:01:27.485Z,12.04
2017-07-03T03:03:54.913Z,12.00
2017-07-03T03:06:22.325Z,12.00
2017-07-03T03:08:49.741Z,11.93
2017-07-03T03:11:17.170Z,11.90
2017-07-03T03:13:44.585Z,11.90
2017-07-03T03:16:12.021Z,11.87
2017-07-03T03:18:39.433Z,11.86
2017-07-03T03:21:06.861Z,11.88
2017-07-03T03:23:34.286Z,11.88
2017-07-03T03:26:01.726Z,11.87
2017-07-03T03:28:29.142Z,11.87
2017-07-03T03:30:56.579Z,11.88
2017-07-03T03:33:24.050Z,11.87
2017-07-03T03:35:51.466Z,11.85
2017-07-03T03:38:18.911Z,11.76
2017-07-03T03:40:46.325Z,11.75
2017-07-03T03:43:13.749Z,11.72
2017-07-03T03:45:47.150Z,11.82
2017-07-03T03:48:14.585Z,11.86
2017-07-03T03:50:42.029Z,11.85
2017-07-03T03:53:09.449Z,11.87
2017-07-03T03:55:36.870Z,11.88
2017-07-03T03:58:04.314Z,11.90
2017-07-03T04:00:31.741Z,11.91
2017-07-03T04:02:59.167Z,11.94
2017-07-03T04:05:26.597Z,11.98
2017-07-03T04:07:54.036Z,12.01
2017-07-03T04:10:21.447Z,12.05
2017-07-03T04:12:48.905Z,12.05
2017-07-03T04:15:16.323Z,12.08
2017-07-03T04:17:43.738Z,12.12
2017-07-03T04:20:11.203Z,12.16
2017-07-03T04:22:38.616Z,12.21
2017-07-03T04:25:06.053Z,12.24
2017-07-03T04:27:33.463Z,12.30
2017-07-03T04:30:00.875Z,12.40
2017-07-03T04:32:28.302Z,12.45
2017-07-03T04:34:55.798Z,12.49
2017-07-03T04:37:23.238Z,12.53
2017-07-03T04:39:50.650Z,12.55
2017-07-03T04:42:18.095Z,12.60
2017-07-03T04:44:45.515Z,12.64
2017-07-03T04:47:12.937Z,12.66
2017-07-03T04:49:40.361Z,12.72
2017-07-03T04:52:07.776Z,12.76
2017-07-03T04:54:35.197Z,12.82
2017-07-03T04:57:02.610Z,12.86
2017-07-03T04:59:30.060Z,12.94
2017-07-03T05:01:57.481Z,13.02
2017-07-03T05:04:24.909Z,13.09
2017-07-03T05:06:52.337Z,13.14
2017-07-03T05:09:19.748Z,13.23
2017-07-03T05:11:47.181Z,13.31
2017-07-03T05:14:14.602Z,13.34
2017-07-03T05:16:42.050Z,13.38
2017-07-03T05:19:09.500Z,13.44
2017-07-03T05:21:36.928Z,13.55
2017-07-03T05:24:04.356Z,13.61
2017-07-03T05:26:31.774Z,13.65
2017-07-03T05:28:59.257Z,13.75
2017-07-03T05:31:26.674Z,13.80
2017-07-03T05:33:54.105Z,13.83
2017-07-03T05:36:21.522Z,13.88
2017-07-03T05:38:48.941Z,13.99
2017-07-03T05:41:16.372Z,14.01
2017-07-03T05:43:49.301Z,14.06
2017-07-03T05:46:16.729Z,14.14
2017-07-03T05:48:44.134Z,14.15
2017-07-03T05:51:11.561Z,14.20
2017-07-03T05:53:38.965Z,14.25
2017-07-03T05:56:06.405Z,14.29
2017-07-03T05:58:33.814Z,14.36
2017-07-03T06:01:01.238Z,14.39
2017-07-03T06:03:28.705Z,14.45
2017-07-03T06:05:56.153Z,14.49
2017-07-03T06:08:23.581Z,14.55
2017-07-03T06:10:51.027Z,14.62
2017-07-03T06:13:18.462Z,14.62
2017-07-03T06:15:45.865Z,14.65
2017-07-03T06:18:13.282Z,14.73
2017-07-03T06:20:40.753Z,14.75
2017-07-03T06:23:08.166Z,14.77
2017-07-03T06:25:35.595Z,14.82
2017-07-03T06:28:03.009Z,14.93
2017-07-03T06:30:30.425Z,14.99
2017-07-03T06:32:57.853Z,15.04
2017-07-03T06:35:25.261Z,15.08
2017-07-03T06:37:52.706Z,15.11
2017-07-03T06:40:20.116Z,15.16
2017-07-03T06:42:48.369Z,15.17
2017-07-03T06:45:15.795Z,15.30
2017-07-03T06:47:43.246Z,15.40
2017-07-03T06:50:10.725Z,15.45
2017-07-03T06:52:38.163Z,15.51
2017-07-03T06:55:05.613Z,15.61
2017-07-03T06:57:33.022Z,15.75
2017-07-03T07:00:00.453Z,15.90
2017-07-03T07:02:27.895Z,15.95
2017-07-03T07:04:55.305Z,16.03
2017-07-03T07:07:22.742Z,16.12
2017-07-03T07:09:50.167Z,16.21
2017-07-03T07:12:17.613Z,16.26
2017-07-03T07:14:45.026Z,16.34
2017-07-03T07:17:12.442Z,16.43
2017-07-03T07:19:39.884Z,16.48
2017-07-03T07:22:07.323Z,16.59
2017-07-03T07:24:34.824Z,16.72
2017-07-03T07:27:02.257Z,16.77
2017-07-03T07:29:29.902Z,16.81
2017-07-03T07:31:57.337Z,16.94
2017-07-03T07:34:24.748Z,16.99
2017-07-03T07:36:52.183Z,16.97
2017-07-03T07:39:19.598Z,17.08
2017-07-03T07:41:47.037Z,17.17
2017-07-03T07:44:14.461Z,17.25
2017-07-03T07:46:41.873Z,17.35
2017-07-03T07:49:09.306Z,17.42
2017-07-03T07:51:36.717Z,17.49
2017-07-03T07:54:04.167Z,17.58
2017-07-03T07:56:31.593Z,17.70
2017-07-03T07:58:59.009Z,17.89
2017-07-03T08:01:26.429Z,18.02
2017-07-03T08:03:53.834Z,18.12
2017-07-03T08:06:21.257Z,18.13
2017-07-03T08:08:48.665Z,18.12
2017-07-03T08:11:16.100Z,17.89
2017-07-03T08:13:43.519Z,17.74
2017-07-03T08:16:10.929Z,17.73
2017-07-03T08:18:38.346Z,17.83
2017-07-03T08:21:05.754Z,17.96
2017-07-03T08:23:33.177Z,18.14
2017-07-03T08:26:00.587Z,18.29
2017-07-03T08:28:28.018Z,18.48
2017-07-03T08:30:55.422Z,18.55
2017-07-03T08:33:22.830Z,18.62
2017-07-03T08:35:50.262Z,18.79
2017-07-03T08:38:17.670Z,18.90
2017-07-03T08:40:45.090Z,18.99
2017-07-03T08:43:12.499Z,18.99
2017-07-03T08:45:39.925Z,19.12
2017-07-03T08:48:07.331Z,19.27
2017-07-03T08:50:34.750Z,19.28
2017-07-03T08:53:02.180Z,19.36
2017-07-03T08:55:29.577Z,19.53
2017-07-03T08:57:57.004Z,19.70
2017-07-03T09:00:24.405Z,19.81
2017-07-03T09:02:51.838Z,19.85
2017-07-03T09:05:19.245Z,19.71
2017-07-03T09:07:46.653Z,19.88
2017-07-03T09:10:14.071Z,20.06
2017-07-03T09:12:41.477Z,20.20
2017-07-03T09:15:08.897Z,20.24
2017-07-03T09:17:36.310Z,20.18
2017-07-03T09:20:03.737Z,20.23
2017-07-03T09:22:31.134Z,20.42
2017-07-03T09:24:58.557Z,20.34
2017-07-03T09:27:25.960Z,20.41
2017-07-03T09:29:53.372Z,20.30
2017-07-03T09:32:20.781Z,20.54
2017-07-03T09:34:48.186Z,20.70
2017-07-03T09:37:15.600Z,20.82
2017-07-03T09:39:43.018Z,21.01
2017-07-03T09:42:10.451Z,21.00
2017-07-03T09:44:37.874Z,21.26
2017-07-03T09:47:05.293Z,21.60
2017-07-03T09:49:32.714Z,22.08
2017-07-03T09:52:00.134Z,22.48
2017-07-03T09:54:27.561Z,22.65
2017-07-03T09:56:54.973Z,22.72
2017-07-03T09:59:22.406Z,22.88
2017-07-03T10:01:49.820Z,23.29
2017-07-03T10:04:17.250Z,23.64
2017-07-03T10:06:44.648Z,23.76
2017-07-03T10:09:12.084Z,23.89
2017-07-03T10:11:39.549Z,24.34
2017-07-03T10:14:06.977Z,24.34
2017-07-03T10:16:34.410Z,24.84
2017-07-03T10:19:01.823Z,24.84
2017-07-03T10:21:29.269Z,24.88
2017-07-03T10:23:56.702Z,25.06
2017-07-03T10:26:24.105Z,25.24
2017-07-03T10:28:51.530Z,25.25
2017-07-03T10:31:18.934Z,24.81
2017-07-03T10:33:46.354Z,24.78
2017-07-03T10:36:13.785Z,25.04
2017-07-03T10:38:41.235Z,24.43
2017-07-03T10:41:08.637Z,24.80
2017-07-03T10:43:36.047Z,24.61
2017-07-03T10:46:03.458Z,24.75
2017-07-03T10:48:30.870Z,24.93
2017-07-03T10:50:58.291Z,24.86
2017-07-03T10:53:25.695Z,24.84
2017-07-03T10:55:53.133Z,24.71
2017-07-03T10:58:20.536Z,24.71
2017-07-03T11:00:47.938Z,24.74
2017-07-03T11:03:15.359Z,24.87
2017-07-03T11:05:42.769Z,25.03
2017-07-03T11:08:10.186Z,25.14
2017-07-03T11:10:37.589Z,25.34
2017-07-03T11:13:05.063Z,25.15
2017-07-03T11:15:32.473Z,25.71
2017-07-03T11:17:59.878Z,25.25
2017-07-03T11:20:27.299Z,25.10
2017-07-03T11:22:54.734Z,25.06
2017-07-03T11:25:22.147Z,25.55
2017-07-03T11:27:49.551Z,25.41
2017-07-03T11:30:16.989Z,25.91
2017-07-03T11:32:44.402Z,25.73
2017-07-03T11:35:11.804Z,25.47
2017-07-03T11:37:39.217Z,25.96
2017-07-03T11:40:06.621Z,26.17
2017-07-03T11:42:34.058Z,26.18
2017-07-03T11:45:01.483Z,25.84
2017-07-03T11:47:28.898Z,25.97
2017-07-03T11:49:56.319Z,26.02
2017-07-03T11:52:23.717Z,26.58
2017-07-03T11:54:51.148Z,27.11
2017-07-03T11:57:18.555Z,27.64
2017-07-03T11:59:45.981Z,27.18
2017-07-03T12:02:13.411Z,26.77
2017-07-03T12:04:40.835Z,26.40
2017-07-03T12:07:08.248Z,26.77
2017-07-03T12:09:35.666Z,26.90
2017-07-03T12:12:03.095Z,26.12
2017-07-03T12:14:30.494Z,25.57
2017-07-03T12:16:57.918Z,26.12
2017-07-03T12:19:25.338Z,26.18
2017-07-03T12:21:52.750Z,26.10
2017-07-03T12:24:20.174Z,25.95
2017-07-03T12:26:47.589Z,25.73
2017-07-03T12:29:15.011Z,25.83
2017-07-03T12:31:42.418Z,25.80
2017-07-03T12:34:09.837Z,26.32
2017-07-03T12:36:37.251Z,26.54
2017-07-03T12:39:04.667Z,26.52
2017-07-03T12:41:32.086Z,26.51
2017-07-03T12:43:59.493Z,26.42
2017-07-03T12:46:26.905Z,26.38
2017-07-03T12:48:54.318Z,25.66
2017-07-03T12:51:21.745Z,25.55
2017-07-03T12:53:49.149Z,25.34
2017-07-03T12:56:16.549Z,25.30
2017-07-03T12:58:43.962Z,25.27
2017-07-03T13:01:11.365Z,25.40
2017-07-03T13:03:38.794Z,25.53
2017-07-03T13:06:06.207Z,25.88
2017-07-03T13:08:33.613Z,25.90
2017-07-03T13:11:01.025Z,25.72
2017-07-03T13:13:28.429Z,25.62
2017-07-03T13:15:55.857Z,25.57
2017-07-03T13:18:23.258Z,25.62
2017-07-03T13:20:50.657Z,25.52
2017-07-03T13:23:18.074Z,25.46
2017-07-03T13:25:45.483Z,25.81
2017-07-03T13:28:12.897Z,25.81
2017-07-03T13:30:40.310Z,25.70
2017-07-03T13:33:07.746Z,25.87
2017-07-03T13:35:35.146Z,25.88
2017-07-03T13:38:02.558Z,26.02
2017-07-03T13:40:29.981Z,26.05
2017-07-03T13:42:57.386Z,25.99
2017-07-03T13:45:24.817Z,26.01
2017-07-03T13:47:52.215Z,26.26
2017-07-03T13:50:19.658Z,26.19
2017-07-03T13:52:47.079Z,26.08
2017-07-03T13:55:14.489Z,25.97
2017-07-03T13:57:41.994Z,25.84
2017-07-03T14:00:09.396Z,25.84
2017-07-03T14:02:36.822Z,26.16
2017-07-03T14:05:04.226Z,26.27
2017-07-03T14:07:31.667Z,25.87
2017-07-03T14:09:59.085Z,25.65
2017-07-03T14:12:26.486Z,25.61
2017-07-03T14:14:53.903Z,25.76
2017-07-03T14:17:21.313Z,25.49
2017-07-03T14:19:48.726Z,25.58
2017-07-03T14:22:16.134Z,25.39
2017-07-03T14:24:43.568Z,25.23
2017-07-03T14:27:11.225Z,25.48
2017-07-03T14:29:38.630Z,25.85
2017-07-03T14:32:06.046Z,26.24
2017-07-03T14:34:33.484Z,26.31
2017-07-03T14:37:00.918Z,26.28
2017-07-03T14:39:28.321Z,26.06
2017-07-03T14:41:55.774Z,26.04
2017-07-03T14:44:23.185Z,25.81
2017-07-03T14:46:50.595Z,25.88
2017-07-03T14:49:18.100Z,25.58
2017-07-03T14:51:45.533Z,25.62
2017-07-03T14:54:12.971Z,25.77
2017-07-03T14:56:40.389Z,25.86
2017-07-03T14:59:07.833Z,26.17
2017-07-03T15:01:35.241Z,26.14
2017-07-03T15:04:02.649Z,26.05
2017-07-03T15:06:30.085Z,25.75
2017-07-03T15:08:57.497Z,25.92
2017-07-03T15:11:24.922Z,25.74
2017-07-03T15:13:52.325Z,25.60
2017-07-03T15:16:19.776Z,25.49
2017-07-03T15:18:47.183Z,25.60
2017-07-03T15:21:14.595Z,25.50
2017-07-03T15:23:42.009Z,25.58
2017-07-03T15:26:09.414Z,25.41
2017-07-03T15:28:36.831Z,25.38
2017-07-03T15:31:04.242Z,25.41
2017-07-03T15:33:31.682Z,25.22
2017-07-03T15:35:59.085Z,25.32
2017-07-03T15:38:26.494Z,25.38
2017-07-03T15:40:53.911Z,25.52
2017-07-03T15:43:21.321Z,25.56
2017-07-03T15:45:48.733Z,25.41
2017-07-03T15:48:16.146Z,25.46
2017-07-03T15:50:43.584Z,25.28
2017-07-03T15:53:10.999Z,25.35
2017-07-03T15:55:38.426Z,25.50
2017-07-03T15:58:05.846Z,25.75
2017-07-03T16:00:33.253Z,25.80
2017-07-03T16:03:00.677Z,25.67
2017-07-03T16:05:28.086Z,25.61
2017-07-03T16:07:55.495Z,25.68
2017-07-03T16:10:22.909Z,25.86
2017-07-03T16:12:50.322Z,25.90
2017-07-03T16:15:17.745Z,25.87
2017-07-03T16:17:45.150Z,25.91
2017-07-03T16:20:12.558Z,25.77
2017-07-03T16:22:39.973Z,25.72
2017-07-03T16:25:07.385Z,25.48
2017-07-03T16:27:34.809Z,25.38
2017-07-03T16:30:02.215Z,25.38
2017-07-03T16:32:29.617Z,25.36
2017-07-03T16:34:57.038Z,25.39
2017-07-03T16:37:24.437Z,25.30
2017-07-03T16:39:51.850Z,25.29
2017-07-03T16:42:19.252Z,25.24
2017-07-03T16:44:46.686Z,25.18
2017-07-03T16:47:14.093Z,25.17
2017-07-03T16:49:41.505Z,25.02
2017-07-03T16:52:08.919Z,24.86
2017-07-03T16:54:36.322Z,24.77
2017-07-03T16:57:03.761Z,24.79
2017-07-03T16:59:31.173Z,24.66
2017-07-03T17:01:58.618Z,24.53
2017-07-03T17:04:26.034Z,24.44
2017-07-03T17:06:53.440Z,24.52
2017-07-03T17:09:20.862Z,24.45
2017-07-03T17:11:48.276Z,24.42
2017-07-03T17:14:15.711Z,24.46
2017-07-03T17:16:43.116Z,24.44
2017-07-03T17:19:10.550Z,24.34
2017-07-03T17:21:37.967Z,24.13
2017-07-03T17:24:07.070Z,24.02
2017-07-03T17:26:34.542Z,23.73
2017-07-03T17:29:01.951Z,23.63
2017-07-03T17:31:29.888Z,23.72
2017-07-03T17:33:57.298Z,23.77
2017-07-03T17:36:24.722Z,23.71
2017-07-03T17:38:52.131Z,23.91
2017-07-03T17:41:19.538Z,24.07
2017-07-03T17:43:46.963Z,24.22
2017-07-03T17:46:14.398Z,24.38
2017-07-03T17:48:41.862Z,24.21
2017-07-03T17:51:09.273Z,24.04
2017-07-03T17:53:36.702Z,23.80
2017-07-03T17:56:04.105Z,23.79
2017-07-03T17:58:31.514Z,23.87
2017-07-03T18:00:58.938Z,23.91
2017-07-03T18:03:26.393Z,23.70
2017-07-03T18:05:53.806Z,23.78
2017-07-03T18:08:21.267Z,23.75
2017-07-03T18:10:48.781Z,23.76
2017-07-03T18:13:16.185Z,23.73
2017-07-03T18:15:43.593Z,23.56
2017-07-03T18:18:11.017Z,23.56
2017-07-03T18:20:38.422Z,23.51
2017-07-03T18:23:05.850Z,23.56
2017-07-03T18:25:33.253Z,23.59
2017-07-03T18:28:00.687Z,23.53
2017-07-03T18:30:28.082Z,23.54
2017-07-03T18:32:55.485Z,23.52
2017-07-03T18:35:22.897Z,23.67
2017-07-03T18:37:50.303Z,23.65
2017-07-03T18:40:17.729Z,23.46
2017-07-03T18:42:45.130Z,23.45
2017-07-03T18:45:12.545Z,23.36
2017-07-03T18:47:39.962Z,23.30
2017-07-03T18:50:07.415Z,23.32
2017-07-03T18:52:34.817Z,23.26
2017-07-03T18:55:02.227Z,23.18
2017-07-03T18:57:29.645Z,23.20
2017-07-03T18:59:57.054Z,23.20
2017-07-03T19:02:24.552Z,23.13
2017-07-03T19:04:51.975Z,23.08
2017-07-03T19:07:19.377Z,23.05
2017-07-03T19:09:46.794Z,23.05
2017-07-03T19:12:14.204Z,23.01
2017-07-03T19:14:41.626Z,23.01
2017-07-03T19:17:09.030Z,23.05
2017-07-03T19:19:36.438Z,23.02
2017-07-03T19:22:03.849Z,23.00
2017-07-03T19:24:31.254Z,22.97
2017-07-03T19:26:58.665Z,23.00
2017-07-03T19:29:26.066Z,22.96
2017-07-03T19:31:53.495Z,22.87
2017-07-03T19:34:20.903Z,22.81
2017-07-03T19:36:48.301Z,22.81
2017-07-03T19:39:15.721Z,22.79
2017-07-03T19:41:43.126Z,22.76
2017-07-03T19:44:10.547Z,22.73
2017-07-03T19:46:37.965Z,22.68
2017-07-03T19:49:05.385Z,22.64
2017-07-03T19:51:32.793Z,22.60
2017-07-03T19:54:00.208Z,22.59
2017-07-03T19:56:27.625Z,22.57
2017-07-03T19:58:55.039Z,22.51
2017-07-03T20:01:22.450Z,22.46
2017-07-03T20:03:49.857Z,22.43
2017-07-03T20:06:17.288Z,22.38
2017-07-03T20:08:44.693Z,22.37
2017-07-03T20:11:12.110Z,22.38
2017-07-03T20:13:39.529Z,22.35
2017-07-03T20:16:06.938Z,22.30
2017-07-03T20:18:34.358Z,22.25
2017-07-03T20:21:01.774Z,22.22
2017-07-03T20:23:29.194Z,22.16
2017-07-03T20:25:56.602Z,22.12
2017-07-03T20:28:24.010Z,22.09
2017-07-03T20:30:51.426Z,22.03
2017-07-03T20:33:18.847Z,22.00
2017-07-03T20:35:46.264Z,21.95
2017-07-03T20:38:13.690Z,21.90
2017-07-03T20:40:41.117Z,21.85
2017-07-03T20:43:08.529Z,21.80
2017-07-03T20:45:35.941Z,21.73
2017-07-03T20:48:03.357Z,21.68
2017-07-03T20:50:30.770Z,21.59
2017-07-03T20:52:58.187Z,21.49
2017-07-03T20:55:25.585Z,21.42
2017-07-03T20:57:53.027Z,21.42
2017-07-03T21:00:20.424Z,21.36
2017-07-03T21:02:47.832Z,21.33
2017-07-03T21:05:15.261Z,21.25
2017-07-03T21:07:42.681Z,21.21
2017-07-03T21:10:10.113Z,21.12
2017-07-03T21:12:37.538Z,21.04
2017-07-03T21:15:04.944Z,20.99
2017-07-03T21:17:32.378Z,20.94
2017-07-03T21:19:59.794Z,20.90
2017-07-03T21:22:27.213Z,20.82
2017-07-03T21:24:54.633Z,20.78
2017-07-03T21:27:22.063Z,20.72
2017-07-03T21:29:49.477Z,20.67
2017-07-03T21:32:16.894Z,20.62
2017-07-03T21:34:44.328Z,20.56
2017-07-03T21:37:11.731Z,20.51
2017-07-03T21:39:39.148Z,20.44
2017-07-03T21:42:06.561Z,20.41
2017-07-03T21:44:33.993Z,20.35
2017-07-03T21:47:01.409Z,20.36
2017-07-03T21:49:28.829Z,20.31
2017-07-03T21:51:56.250Z,20.27
2017-07-03T21:54:23.670Z,20.24
2017-07-03T21:56:51.092Z,20.18
2017-07-03T21:59:18.509Z,20.12
2017-07-03T22:01:45.938Z,20.09
2017-07-03T22:04:13.358Z,20.12
2017-07-03T22:06:40.772Z,20.15
2017-07-03T22:09:08.209Z,20.13
2017-07-03T22:11:35.642Z,20.10
2017-07-03T22:14:03.073Z,20.11
2017-07-03T22:16:30.489Z,20.14
2017-07-03T22:18:57.921Z,20.19
2017-07-03T22:21:25.337Z,20.20
2017-07-03T22:23:53.481Z,20.21
2017-07-03T22:26:21.000Z,20.20
2017-07-03T22:28:48.416Z,20.18
2017-07-03T22:31:15.849Z,20.16
2017-07-03T22:33:43.322Z,20.09
2017-07-03T22:36:10.752Z,20.14
2017-07-03T22:38:38.181Z,20.05
2017-07-03T22:41:05.594Z,20.00
2017-07-03T22:43:33.053Z,19.82
2017-07-03T22:46:00.478Z,19.82
2017-07-03T22:48:27.901Z,19.78
2017-07-03T22:50:55.315Z,19.62
2017-07-03T22:53:22.766Z,19.58
2017-07-03T22:55:50.209Z,19.58
2017-07-03T22:58:17.661Z,19.51
2017-07-03T23:00:45.126Z,19.51
2017-07-03T23:03:12.546Z,19.53
2017-07-03T23:05:40.084Z,19.52
2017-07-03T23:08:07.492Z,19.55
2017-07-03T23:10:35.001Z,19.53
2017-07-03T23:13:02.422Z,19.49
2017-07-03T23:15:29.846Z,19.43
2017-07-03T23:17:57.286Z,19.31
2017-07-03T23:20:24.712Z,19.28
2017-07-03T23:22:52.122Z,19.26
2017-07-03T23:25:19.610Z,19.24
2017-07-03T23:27:47.037Z,19.24
2017-07-03T23:30:14.481Z,19.25
2017-07-03T23:32:41.915Z,19.27
2017-07-03T23:35:09.363Z,19.27
2017-07-03T23:37:36.813Z,19.31
2017-07-03T23:40:04.253Z,19.32
2017-07-03T23:42:31.681Z,19.32
2017-07-03T23:44:59.117Z,19.33
2017-07-03T23:47:26.546Z,19.30
2017-07-03T23:49:53.976Z,19.32
2017-07-03T23:52:21.418Z,19.30
2017-07-03T23:54:48.873Z,19.29
2017-07-03T23:57:16.347Z,19.26
2017-07-03T23:59:43.781Z,19.24
